Time;durP1;ratioP1;P1;durP2;ratioP2;P2;SDS_P1;SDS_P2;PMS_P1;PMS_P2;Temp;Humidity;BMP_temperature;BMP_pressure;BME280_temperature;BME280_humidity;BME280_pressure;Samples;Min_cycle;Max_cycle;Signal;HPM_P1;HPM_P2
2022/09/12 00:03:17;;;;;;;;;;;;;;;13.53;95.87;100033.91;12868462;23;19955;-67
2022/09/12 00:08:19;;;;;;;;;;;;;;;13.49;96.60;100054.00;12868400;23;19951;-68
2022/09/12 00:13:24;;;;;;;;;;;;;;;13.47;96.31;100045.34;12868357;23;20302;-68
2022/09/12 00:18:27;;;;;;;;;;;;;;;13.49;96.47;100047.91;12868805;23;20329;-68
2022/09/12 00:23:30;;;;;;;;;;;;;;;13.46;96.89;100046.22;12868175;23;20322;-70
2022/09/12 00:28:35;;;;;;;;;;;;;;;13.50;96.77;100042.66;12867993;23;19947;-70
2022/09/12 00:33:38;;;;;;;;;;;;;;;13.51;96.55;100044.34;12868602;23;20309;-72
2022/09/12 00:38:41;;;;;;;;;;;;;;;13.50;96.94;100040.06;12867768;23;19920;-70
2022/09/12 00:43:46;;;;;;;;;;;;;;;13.46;97.23;100045.41;12868307;23;20312;-67
2022/09/12 00:48:52;;;;;;;;;;;;;;;13.48;97.05;100051.41;12867528;23;20223;-69
2022/09/12 00:53:55;;;;;;;;;;;;;;;13.46;97.42;100048.00;12868177;23;19931;-70
2022/09/12 00:59:02;;;;;;;;;;;;;;;13.52;97.44;100059.13;12867226;23;20295;-69
2022/09/12 01:04:05;;;;;;;;;;;;;;;13.45;97.50;100065.38;12883335;23;19944;-70
2022/09/12 01:09:09;;;;;;;;;;;;;;;13.43;97.91;100061.09;12867343;23;20353;-70
2022/09/12 01:14:14;;;;;;;;;;;;;;;13.43;98.10;100061.09;12867232;23;20219;-67
2022/09/12 01:19:30;;;;;;;;;;;;;;;13.34;98.26;100067.41;12866945;23;19931;-68
2022/09/12 01:24:44;;;;;;;;;;;;;;;13.32;99.21;100074.41;12881996;23;19946;-69
2022/09/12 01:30:04;;;;;;;;;;;;;;;13.32;98.60;100066.59;12866481;23;19958;-72
2022/09/12 01:35:15;;;;;;;;;;;;;;;13.34;98.70;100062.19;12848574;23;20307;-73
2022/09/12 01:40:22;;;;;;;;;;;;;;;13.34;98.51;100070.00;12879687;23;20222;-72
2022/09/12 01:45:28;;;;;;;;;;;;;;;13.29;99.31;100077.09;12879939;23;19940;-71
2022/09/12 01:50:34;;;;;;;;;;;;;;;13.31;98.99;100080.53;12879139;23;19943;-74
2022/09/12 01:55:41;;;;;;;;;;;;;;;13.19;99.08;100080.84;12878736;23;19962;-70
2022/09/12 02:00:46;;;;;;;;;;;;;;;13.14;99.91;100085.31;12878424;23;19934;-71
2022/09/12 02:05:56;;;;;;;;;;;;;;;13.15;99.67;100073.16;12878553;23;19944;-72
2022/09/12 02:11:01;;;;;;;;;;;;;;;13.12;100.00;100084.50;12878105;23;19920;-70
2022/09/12 02:16:08;;;;;;;;;;;;;;;13.14;99.89;100074.88;12865883;23;20042;-72
2022/09/12 02:21:13;;;;;;;;;;;;;;;13.17;100.00;100085.22;12878002;23;19986;-70
2022/09/12 02:26:19;;;;;;;;;;;;;;;13.19;99.80;100070.41;12865957;23;19920;-72
2022/09/12 02:31:23;;;;;;;;;;;;;;;13.10;100.00;100075.84;12869693;23;20264;-72
2022/09/12 02:36:32;;;;;;;;;;;;;;;13.15;100.00;100081.81;12865974;23;19954;-72
2022/09/12 02:41:35;;;;;;;;;;;;;;;13.14;100.00;100082.72;12866400;23;19930;-71
2022/09/12 02:46:40;;;;;;;;;;;;;;;13.19;100.00;100083.44;12866641;23;19984;-71
2022/09/12 02:51:45;;;;;;;;;;;;;;;13.20;100.00;100087.75;12866519;23;19931;-72
2022/09/12 02:56:48;;;;;;;;;;;;;;;13.18;100.00;100089.56;12865824;23;20001;-75
2022/09/12 03:01:59;;;;;;;;;;;;;;;13.17;100.00;100111.28;12865749;23;19986;-72
2022/09/12 03:07:11;;;;;;;;;;;;;;;13.21;100.00;100084.28;12865471;23;20274;-71
2022/09/12 03:12:20;;;;;;;;;;;;;;;13.14;100.00;100098.34;12875510;23;19932;-72
2022/09/12 03:17:27;;;;;;;;;;;;;;;13.15;100.00;100096.59;12875321;23;19939;-74
2022/09/12 03:22:33;;;;;;;;;;;;;;;13.12;100.00;100113.16;12876527;23;20054;-71
2022/09/12 03:27:39;;;;;;;;;;;;;;;13.20;100.00;100116.41;12873519;23;19940;-70
2022/09/12 03:32:43;;;;;;;;;;;;;;;13.23;100.00;100120.72;12878705;23;19943;-70
2022/09/12 03:37:48;;;;;;;;;;;;;;;13.24;100.00;100125.88;12869667;23;19931;-70
2022/09/12 03:42:51;;;;;;;;;;;;;;;13.24;100.00;100131.09;12869541;23;19955;-74
2022/09/12 03:47:54;;;;;;;;;;;;;;;13.25;100.00;100148.47;12868980;23;19924;-72
2022/09/12 03:52:59;;;;;;;;;;;;;;;13.16;100.00;100140.88;12868864;23;19959;-73
2022/09/12 03:58:03;;;;;;;;;;;;;;;13.15;100.00;100140.91;12876684;23;19947;-74
2022/09/12 04:03:06;;;;;;;;;;;;;;;13.15;100.00;100141.75;12863888;23;20299;-70
2022/09/12 04:08:10;;;;;;;;;;;;;;;13.11;100.00;100150.53;12863296;23;19951;-72
2022/09/12 04:13:13;;;;;;;;;;;;;;;13.01;100.00;100154.19;12862209;23;20311;-72
2022/09/12 04:18:16;;;;;;;;;;;;;;;12.85;100.00;100150.25;12859866;23;19920;-73
2022/09/12 04:23:20;;;;;;;;;;;;;;;12.94;100.00;100155.25;12860883;23;20306;-72
2022/09/12 04:28:24;;;;;;;;;;;;;;;12.93;100.00;100161.34;12860583;23;19947;-74
2022/09/12 04:33:27;;;;;;;;;;;;;;;12.88;100.00;100159.72;12861003;23;19923;-73
2022/09/12 04:38:31;;;;;;;;;;;;;;;12.81;100.00;100161.63;12861064;23;19959;-71
2022/09/12 04:43:34;;;;;;;;;;;;;;;12.90;100.00;100171.84;12860130;23;19947;-73
2022/09/12 04:48:37;;;;;;;;;;;;;;;13.01;100.00;100179.41;12860106;23;20601;-71
2022/09/12 04:53:42;;;;;;;;;;;;;;;12.95;100.00;100177.81;12860955;23;19924;-71
2022/09/12 04:58:46;;;;;;;;;;;;;;;12.90;100.00;100187.47;12860623;23;19959;-73
2022/09/12 05:03:49;;;;;;;;;;;;;;;12.86;100.00;100193.63;12860228;23;19960;-70
2022/09/12 05:08:55;;;;;;;;;;;;;;;12.76;100.00;100192.97;12860256;23;20361;-72
2022/09/12 05:13:58;;;;;;;;;;;;;;;12.85;100.00;100198.88;12859760;23;19956;-71
2022/09/12 05:19:01;;;;;;;;;;;;;;;12.82;100.00;100198.94;12859966;23;19962;-71
2022/09/12 05:24:06;;;;;;;;;;;;;;;12.78;100.00;100195.56;12859720;23;19924;-73
2022/09/12 05:29:09;;;;;;;;;;;;;;;12.70;100.00;100194.88;12859312;23;20211;-74
2022/09/12 05:34:12;;;;;;;;;;;;;;;12.75;100.00;100200.84;12860868;23;20386;-73
2022/09/12 05:39:17;;;;;;;;;;;;;;;12.65;100.00;100210.56;12862019;23;20307;-73
2022/09/12 05:44:20;;;;;;;;;;;;;;;12.67;100.00;100211.41;12861334;23;19982;-75
2022/09/12 05:49:23;;;;;;;;;;;;;;;12.71;100.00;100207.00;12859437;23;19947;-74
2022/09/12 05:54:28;;;;;;;;;;;;;;;12.68;100.00;100212.25;12859768;23;20298;-73
2022/09/12 05:59:33;;;;;;;;;;;;;;;12.72;100.00;100208.69;12871893;23;19935;-74
2022/09/12 06:04:36;;;;;;;;;;;;;;;12.71;100.00;100217.41;12858826;23;20381;-75
2022/09/12 06:09:41;;;;;;;;;;;;;;;12.74;100.00;100206.91;12859036;23;20318;-72
2022/09/12 06:14:44;;;;;;;;;;;;;;;12.80;100.00;100212.00;12858784;23;20010;-73
2022/09/12 06:19:46;;;;;;;;;;;;;;;12.85;100.00;100207.56;12858660;23;19966;-74
2022/09/12 06:24:51;;;;;;;;;;;;;;;12.99;100.00;100207.25;12859593;23;20470;-72
2022/09/12 06:29:59;;;;;;;;;;;;;;;12.93;100.00;100209.97;12868037;23;19974;-66
2022/09/12 06:35:04;;;;;;;;;;;;;;;12.95;100.00;100202.97;12858524;23;19983;-67
2022/09/12 06:40:09;;;;;;;;;;;;;;;12.98;100.00;100210.75;12858837;23;19951;-72
2022/09/12 06:45:15;;;;;;;;;;;;;;;13.00;100.00;100225.44;12873653;23;19923;-74
2022/09/12 06:50:18;;;;;;;;;;;;;;;13.08;100.00;100225.31;12873552;23;19927;-75
2022/09/12 06:55:23;;;;;;;;;;;;;;;12.96;100.00;100230.75;12858289;23;19982;-75
2022/09/12 07:00:30;;;;;;;;;;;;;;;13.08;100.00;100228.75;12878144;23;20011;-74
2022/09/12 07:05:33;;;;;;;;;;;;;;;13.28;100.00;100229.19;12863113;23;20294;-72
2022/09/12 07:10:38;;;;;;;;;;;;;;;13.24;100.00;100229.28;12864649;23;19943;-72
2022/09/12 07:15:41;;;;;;;;;;;;;;;13.21;100.00;100235.44;12864867;23;19920;-71
2022/09/12 07:20:43;;;;;;;;;;;;;;;13.18;100.00;100248.53;12867404;23;19959;-75
2022/09/12 07:25:53;;;;;;;;;;;;;;;13.30;100.00;100250.00;12869212;23;20012;-73
2022/09/12 07:30:56;;;;;;;;;;;;;;;13.16;100.00;100254.66;12868513;23;20287;-73
2022/09/12 07:36:00;;;;;;;;;;;;;;;13.17;100.00;100274.59;12869114;23;19931;-72
2022/09/12 07:41:11;;;;;;;;;;;;;;;13.23;100.00;100275.34;12869121;23;19934;-72
2022/09/12 07:46:14;;;;;;;;;;;;;;;13.36;100.00;100273.31;12883435;23;19966;-73
2022/09/12 07:51:17;;;;;;;;;;;;;;;13.40;100.00;100285.38;12861691;23;20324;-73
2022/09/12 07:56:22;;;;;;;;;;;;;;;13.44;100.00;100290.47;12862266;23;19950;-67
2022/09/12 08:01:31;;;;;;;;;;;;;;;13.48;100.00;100292.13;12861198;23;20046;-75
2022/09/12 08:06:35;;;;;;;;;;;;;;;13.56;100.00;100290.19;12861147;23;19931;-72
2022/09/12 08:11:40;;;;;;;;;;;;;;;13.54;100.00;100289.41;12860514;23;20006;-70
2022/09/12 08:16:43;;;;;;;;;;;;;;;13.68;100.00;100287.31;12861719;23;19951;-73
2022/09/12 08:21:46;;;;;;;;;;;;;;;13.93;100.00;100290.19;12860705;23;19920;-72
2022/09/12 08:26:50;;;;;;;;;;;;;;;13.91;100.00;100294.56;12861713;23;19999;-71
2022/09/12 08:31:53;;;;;;;;;;;;;;;13.97;100.00;100290.97;12860167;23;20343;-72
2022/09/12 08:36:59;;;;;;;;;;;;;;;13.94;100.00;100297.97;12860751;23;19920;-66
2022/09/12 08:42:04;;;;;;;;;;;;;;;13.95;100.00;100293.63;12861343;23;19951;-71
2022/09/12 08:47:17;;;;;;;;;;;;;;;14.00;100.00;100293.50;12878808;23;19932;-67
2022/09/12 08:52:23;;;;;;;;;;;;;;;14.08;100.00;100296.78;12861290;23;19954;-73
2022/09/12 08:57:28;;;;;;;;;;;;;;;14.16;100.00;100295.69;12862668;23;19923;-71
2022/09/12 09:02:49;;;;;;;;;;;;;;;14.23;100.00;100299.88;12862243;23;20023;-74
2022/09/12 09:08:07;;;;;;;;;;;;;;;14.19;100.00;100302.56;12862378;23;19971;-74
2022/09/12 09:14:46;;;;;;;;;;;;;;;14.30;100.00;100305.81;12857172;23;19954;-74
2022/09/12 09:18:42;;;;;;;;;;;;;;;14.29;100.00;100304.94;12874377;23;19991;-72
2022/09/12 09:23:47;;;;;;;;;;;;;;;14.35;100.00;100309.16;12860187;23;20006;-73
2022/09/12 09:28:53;;;;;;;;;;;;;;;14.40;100.00;100309.88;12859856;23;19920;-74
2022/09/12 09:33:57;;;;;;;;;;;;;;;14.48;100.00;100306.16;12873921;23;20043;-74
2022/09/12 09:39:04;;;;;;;;;;;;;;;14.67;100.00;100306.53;12859228;23;19994;-72
2022/09/12 09:44:09;;;;;;;;;;;;;;;14.87;100.00;100305.09;12873535;23;19920;-73
2022/09/12 09:49:13;;;;;;;;;;;;;;;14.99;100.00;100312.59;12859710;23;20370;-72
2022/09/12 09:54:18;;;;;;;;;;;;;;;14.99;100.00;100314.34;12859085;23;19924;-72
2022/09/12 09:59:27;;;;;;;;;;;;;;;14.91;100.00;100318.91;12859089;23;19946;-72
2022/09/12 10:04:31;;;;;;;;;;;;;;;14.88;100.00;100329.44;12865289;23;19934;-73
2022/09/12 10:09:35;;;;;;;;;;;;;;;14.85;100.00;100327.78;12859498;23;19924;-73
2022/09/12 10:14:40;;;;;;;;;;;;;;;14.81;100.00;100334.00;12858777;23;19951;-73
2022/09/12 10:19:43;;;;;;;;;;;;;;;14.79;100.00;100342.75;12874566;23;19950;-75
2022/09/12 10:25:02;;;;;;;;;;;;;;;14.95;100.00;100346.69;12873148;23;19959;-71
2022/09/12 10:30:16;;;;;;;;;;;;;;;14.94;100.00;100345.81;12858288;23;19928;-74
2022/09/12 10:35:20;;;;;;;;;;;;;;;14.90;100.00;100345.94;12866002;23;20003;-73
2022/09/12 10:40:24;;;;;;;;;;;;;;;14.89;100.00;100354.69;12867660;23;19947;-74
2022/09/12 10:45:30;;;;;;;;;;;;;;;14.88;100.00;100351.22;12867267;23;19924;-75
2022/09/12 10:50:36;;;;;;;;;;;;;;;14.87;100.00;100356.50;12881074;23;19920;-68
2022/09/12 10:55:41;;;;;;;;;;;;;;;14.80;100.00;100361.03;12866222;23;19955;-73
2022/09/12 11:00:47;;;;;;;;;;;;;;;14.74;100.00;100362.94;12879834;23;19924;-74
2022/09/12 11:05:55;;;;;;;;;;;;;;;14.74;100.00;100363.81;12864946;23;19991;-72
2022/09/12 11:11:03;;;;;;;;;;;;;;;14.69;100.00;100373.53;12864633;23;19979;-72
2022/09/12 11:16:18;;;;;;;;;;;;;;;14.69;100.00;100370.03;12879758;23;19962;-73
2022/09/12 11:21:30;;;;;;;;;;;;;;;14.71;100.00;100376.97;12879546;23;19920;-74
2022/09/12 11:26:46;;;;;;;;;;;;;;;14.80;100.00;100370.63;12865365;23;19920;-74
2022/09/12 11:32:01;;;;;;;;;;;;;;;14.75;100.00;100370.72;12866756;23;19927;-74
2022/09/12 11:37:13;;;;;;;;;;;;;;;14.77;100.00;100374.16;12865568;23;20485;-73
2022/09/12 11:42:23;;;;;;;;;;;;;;;14.76;100.00;100371.59;12876069;23;20337;-75
2022/09/12 11:47:29;;;;;;;;;;;;;;;14.93;100.00;100372.84;12873441;23;20601;-73
2022/09/12 11:52:37;;;;;;;;;;;;;;;14.97;100.00;100381.47;12862413;23;19940;-74
2022/09/12 11:57:41;;;;;;;;;;;;;;;15.00;100.00;100368.31;12873120;23;19920;-71
2022/09/12 12:02:56;;;;;;;;;;;;;;;14.95;100.00;100376.28;12861581;23;19963;-74
2022/09/12 12:08:00;;;;;;;;;;;;;;;14.95;100.00;100370.19;12872697;23;19924;-74
2022/09/12 12:13:05;;;;;;;;;;;;;;;14.99;100.00;100372.69;12860845;23;19928;-73
2022/09/12 12:18:18;;;;;;;;;;;;;;;14.97;100.00;100379.72;12873279;23;20488;-72
2022/09/12 12:23:22;;;;;;;;;;;;;;;14.98;100.00;100380.56;12862878;23;19952;-73
2022/09/12 12:28:59;;;;;;;;;;;;;;;15.07;100.00;100382.94;12863433;23;19955;-73
2022/09/12 12:34:21;;;;;;;;;;;;;;;15.16;100.00;100373.97;12619737;23;19921;-74
2022/09/12 12:39:46;;;;;;;;;;;;;;;15.28;100.00;100379.72;12825631;23;19926;-76
2022/09/12 12:44:50;;;;;;;;;;;;;;;15.39;100.00;100380.28;12867033;23;20259;-74
2022/09/12 12:49:57;;;;;;;;;;;;;;;15.47;100.00;100386.16;12867233;23;19919;-76
2022/09/12 12:55:01;;;;;;;;;;;;;;;15.36;100.00;100385.56;12866193;23;19939;-73
2022/09/12 13:00:07;;;;;;;;;;;;;;;15.30;100.00;100388.38;12867021;23;19920;-73
2022/09/12 13:05:19;;;;;;;;;;;;;;;15.31;100.00;100384.84;12872821;23;19920;-72
2022/09/12 13:10:25;;;;;;;;;;;;;;;15.31;100.00;100390.06;12866853;23;19946;-73
2022/09/12 13:15:46;;;;;;;;;;;;;;;15.32;100.00;100394.41;12873616;23;19920;-73
2022/09/12 13:20:53;;;;;;;;;;;;;;;15.35;100.00;100394.31;12867126;23;19920;-74
2022/09/12 13:25:57;;;;;;;;;;;;;;;15.41;100.00;100393.34;12867056;23;19969;-75
2022/09/12 13:31:02;;;;;;;;;;;;;;;15.39;99.75;100398.56;12866697;23;19920;-74
2022/09/12 13:36:29;;;;;;;;;;;;;;;15.38;100.00;100396.84;12866304;23;19920;-73
2022/09/12 13:41:40;;;;;;;;;;;;;;;15.47;99.12;100391.38;12871534;23;20303;-73
2022/09/12 13:46:43;;;;;;;;;;;;;;;15.56;98.76;100388.50;12871088;23;19944;-74
2022/09/12 13:51:46;;;;;;;;;;;;;;;15.76;97.35;100390.50;12867203;23;19920;-73
2022/09/12 13:56:50;;;;;;;;;;;;;;;15.90;96.55;100390.94;12866690;23;20275;-72
2022/09/12 14:01:53;;;;;;;;;;;;;;;16.08;96.44;100391.19;12865892;23;20298;-72
2022/09/12 14:06:59;;;;;;;;;;;;;;;16.09;97.19;100390.31;12865531;23;19923;-73
2022/09/12 14:12:04;;;;;;;;;;;;;;;16.07;97.74;100388.63;12866379;23;19945;-75
2022/09/12 14:17:15;;;;;;;;;;;;;;;16.07;96.45;100392.13;12865777;23;20358;-70
2022/09/12 14:22:25;;;;;;;;;;;;;;;16.08;97.15;100388.59;12870972;23;19920;-75
2022/09/12 14:27:36;;;;;;;;;;;;;;;16.03;97.26;100397.53;12865108;23;19931;-72
2022/09/12 14:32:39;;;;;;;;;;;;;;;16.05;98.54;100395.69;12871795;23;19954;-73
2022/09/12 14:37:42;;;;;;;;;;;;;;;15.99;98.43;100388.03;12865534;23;20342;-71
2022/09/12 14:42:49;;;;;;;;;;;;;;;15.91;98.87;100398.72;12860488;23;19967;-71
2022/09/12 14:47:52;;;;;;;;;;;;;;;15.91;100.00;100396.13;12863939;23;19943;-73
2022/09/12 14:53:06;;;;;;;;;;;;;;;15.91;100.00;100397.91;12859909;23;19951;-74
2022/09/12 14:58:22;;;;;;;;;;;;;;;15.82;100.00;100399.03;12861111;23;20319;-65
2022/09/12 15:03:30;;;;;;;;;;;;;;;15.70;100.00;100398.56;12864475;23;19920;-71
2022/09/12 15:08:33;;;;;;;;;;;;;;;15.74;100.00;100406.25;12859344;23;19920;-72
2022/09/12 15:13:41;;;;;;;;;;;;;;;15.68;100.00;100409.06;12859046;23;19930;-70
2022/09/12 15:18:44;;;;;;;;;;;;;;;15.65;100.00;100400.44;12865299;23;19927;-72
2022/09/12 15:23:47;;;;;;;;;;;;;;;15.60;100.00;100404.97;12870239;23;19920;-69
2022/09/12 15:28:52;;;;;;;;;;;;;;;15.54;100.00;100399.91;12868787;23;19946;-75
2022/09/12 15:33:56;;;;;;;;;;;;;;;15.49;100.00;100412.25;12868604;23;19920;-72
2022/09/12 15:38:59;;;;;;;;;;;;;;;15.47;100.00;100414.94;12868557;23;20279;-73
2022/09/12 15:44:04;;;;;;;;;;;;;;;15.49;100.00;100422.72;12868451;23;19919;-73
2022/09/12 15:49:07;;;;;;;;;;;;;;;15.46;100.00;100426.28;12869373;23;20239;-74
2022/09/12 15:54:12;;;;;;;;;;;;;;;15.44;100.00;100425.50;12868793;23;20262;-71
2022/09/12 15:59:16;;;;;;;;;;;;;;;15.42;100.00;100424.66;12868643;23;19919;-73
2022/09/12 16:04:22;;;;;;;;;;;;;;;15.38;100.00;100425.63;12868172;23;19947;-74
2022/09/12 16:09:25;;;;;;;;;;;;;;;15.34;100.00;100418.75;12868061;23;19920;-73
2022/09/12 16:14:29;;;;;;;;;;;;;;;15.31;100.00;100421.47;12868165;23;20251;-77
2022/09/12 16:19:32;;;;;;;;;;;;;;;15.29;100.00;100422.41;12867917;23;19959;-73
2022/09/12 16:24:36;;;;;;;;;;;;;;;15.26;100.00;100425.09;12865210;23;19931;-72
2022/09/12 16:29:40;;;;;;;;;;;;;;;15.23;100.00;100433.91;12864851;23;19962;-73
2022/09/12 16:34:43;;;;;;;;;;;;;;;15.19;100.00;100429.66;12865433;23;20219;-74
2022/09/12 16:39:47;;;;;;;;;;;;;;;15.13;100.00;100429.84;12865858;23;20271;-73
2022/09/12 16:44:52;;;;;;;;;;;;;;;15.09;100.00;100430.81;12867732;23;20322;-75
2022/09/12 16:49:55;;;;;;;;;;;;;;;15.06;100.00;100423.88;12868995;23;19920;-72
2022/09/12 16:54:58;;;;;;;;;;;;;;;15.04;100.00;100425.72;12867513;23;19950;-72
2022/09/12 17:00:03;;;;;;;;;;;;;;;15.03;100.00;100430.94;12867408;23;19919;-71
2022/09/12 17:05:06;;;;;;;;;;;;;;;15.02;100.00;100432.72;12866989;23;19931;-72
2022/09/12 17:10:10;;;;;;;;;;;;;;;14.99;100.00;100427.59;12860938;23;19959;-75
2022/09/12 17:15:15;;;;;;;;;;;;;;;14.99;100.00;100424.13;12860029;23;19923;-75
2022/09/12 17:20:18;;;;;;;;;;;;;;;14.96;100.00;100432.88;12859730;23;20362;-72
2022/09/12 17:25:23;;;;;;;;;;;;;;;14.94;100.00;100431.22;12860414;23;20295;-74
2022/09/12 17:30:27;;;;;;;;;;;;;;;14.93;100.00;100447.78;12833614;23;20340;-66
2022/09/12 17:35:33;;;;;;;;;;;;;;;14.90;100.00;100432.19;12860441;23;20002;-73
2022/09/12 17:40:39;;;;;;;;;;;;;;;14.86;100.00;100436.63;12868857;23;20001;-75
2022/09/12 17:46:01;;;;;;;;;;;;;;;14.88;100.00;100439.22;12874375;23;20025;-71
2022/09/12 17:51:08;;;;;;;;;;;;;;;14.86;100.00;100439.25;12862932;23;19924;-71
2022/09/12 17:56:11;;;;;;;;;;;;;;;14.82;100.00;100439.38;12867366;23;19924;-70
2022/09/12 18:06:37;;;;;;;;;;;;;;;14.79;100.00;100431.59;12866005;23;20015;-76
2022/09/12 18:11:40;;;;;;;;;;;;;;;14.84;100.00;100435.81;12859416;23;19935;-72
2022/09/12 18:16:45;;;;;;;;;;;;;;;14.85;100.00;100439.31;12859593;23;19934;-72
2022/09/12 18:21:48;;;;;;;;;;;;;;;14.83;100.00;100435.88;12858806;23;19920;-66
2022/09/12 18:26:52;;;;;;;;;;;;;;;14.82;100.00;100439.38;12858559;23;19924;-69
2022/09/12 18:31:57;;;;;;;;;;;;;;;14.82;100.00;100434.16;12858326;23;19955;-66
2022/09/12 18:37:04;;;;;;;;;;;;;;;14.82;100.00;100440.22;12867110;23;19970;-65
2022/09/12 18:42:07;;;;;;;;;;;;;;;14.84;100.00;100441.03;12858350;23;19920;-65
2022/09/12 18:47:12;;;;;;;;;;;;;;;14.86;100.00;100444.47;12858454;23;19935;-71
2022/09/12 18:52:15;;;;;;;;;;;;;;;14.85;100.00;100440.16;12859028;23;19924;-74
2022/09/12 18:57:20;;;;;;;;;;;;;;;14.81;100.00;100433.28;12871537;23;19974;-71
2022/09/12 19:02:27;;;;;;;;;;;;;;;14.78;100.00;100427.28;12863111;23;20382;-71
2022/09/12 19:07:30;;;;;;;;;;;;;;;14.77;100.00;100430.81;12871690;23;20239;-71
2022/09/12 19:12:33;;;;;;;;;;;;;;;14.73;100.00;100427.41;12863063;23;19920;-72
2022/09/12 19:17:37;;;;;;;;;;;;;;;14.69;100.00;100441.44;12862986;23;20236;-70
2022/09/12 19:22:41;;;;;;;;;;;;;;;14.66;100.00;100438.06;12864719;23;19943;-72
2022/09/12 19:27:44;;;;;;;;;;;;;;;14.61;100.00;100440.78;12863598;23;19947;-71
2022/09/12 19:32:48;;;;;;;;;;;;;;;14.57;100.00;100435.66;12872293;23;19927;-70
2022/09/12 19:37:51;;;;;;;;;;;;;;;14.52;100.00;100427.97;12862489;23;20022;-71
2022/09/12 19:42:54;;;;;;;;;;;;;;;14.46;100.00;100432.47;12862745;23;19924;-69
2022/09/12 19:47:59;;;;;;;;;;;;;;;14.39;100.00;100429.13;12861914;23;19920;-71
2022/09/12 19:53:02;;;;;;;;;;;;;;;14.31;100.00;100430.22;12861521;23;19940;-71
2022/09/12 19:58:05;;;;;;;;;;;;;;;14.19;100.00;100426.13;12861352;23;19962;-71
2022/09/12 20:03:10;;;;;;;;;;;;;;;14.15;100.00;100434.91;12860824;23;20233;-73
2022/09/12 20:08:13;;;;;;;;;;;;;;;14.05;100.00;100430.81;12861658;23;19919;-70
2022/09/12 20:13:16;;;;;;;;;;;;;;;14.01;100.00;100417.88;12861433;23;20319;-74
2022/09/12 20:18:20;;;;;;;;;;;;;;;13.92;100.00;100418.94;12861285;23;19932;-73
2022/09/12 20:23:23;;;;;;;;;;;;;;;13.84;100.00;100418.22;12861383;23;19948;-73
2022/09/12 20:28:26;;;;;;;;;;;;;;;13.80;100.00;100421.81;12861299;23;19995;-75
2022/09/12 20:33:31;;;;;;;;;;;;;;;13.73;100.00;100421.13;12860952;23;19963;-72
2022/09/12 20:38:34;;;;;;;;;;;;;;;13.70;100.00;100425.53;12861087;23;19947;-74
2022/09/12 20:43:38;;;;;;;;;;;;;;;13.66;100.00;100423.88;12860598;23;20220;-73
2022/09/12 20:48:43;;;;;;;;;;;;;;;13.58;100.00;100424.03;12861056;23;19928;-73
2022/09/12 20:53:46;;;;;;;;;;;;;;;13.51;100.00;100429.41;12860412;23;20401;-72
2022/09/12 20:58:51;;;;;;;;;;;;;;;13.46;100.00;100426.88;12862434;23;19940;-71
2022/09/12 21:04:00;;;;;;;;;;;;;;;13.41;100.00;100423.53;12875645;23;19919;-73
2022/09/12 21:09:04;;;;;;;;;;;;;;;13.32;100.00;100420.25;12874723;23;19923;-72
2022/09/12 21:14:07;;;;;;;;;;;;;;;13.24;100.00;100417.78;12860311;23;19951;-73
2022/09/12 21:19:11;;;;;;;;;;;;;;;13.21;100.00;100414.38;12859811;23;19994;-73
2022/09/12 21:24:14;;;;;;;;;;;;;;;13.17;100.00;100418.81;12859734;23;20026;-72
2022/09/12 21:29:18;;;;;;;;;;;;;;;13.19;100.00;100429.19;12859545;23;19955;-73
2022/09/12 21:34:22;;;;;;;;;;;;;;;13.11;100.00;100437.19;12860157;23;20011;-73
2022/09/12 21:39:26;;;;;;;;;;;;;;;13.06;100.00;100428.59;12859573;23;19947;-70
2022/09/12 21:44:28;;;;;;;;;;;;;;;13.07;100.00;100425.09;12859390;23;20002;-73
2022/09/12 21:49:33;;;;;;;;;;;;;;;13.05;100.00;100426.84;12859806;23;20443;-71
2022/09/12 21:54:36;;;;;;;;;;;;;;;12.98;100.00;100422.63;12859882;23;20019;-73
2022/09/12 21:59:39;;;;;;;;;;;;;;;12.98;100.00;100413.97;12859105;23;19920;-72
2022/09/12 22:04:43;;;;;;;;;;;;;;;13.02;100.00;100418.25;12859281;23;19932;-70
2022/09/12 22:09:47;;;;;;;;;;;;;;;13.03;100.00;100415.59;12858920;23;19943;-73
2022/09/12 22:14:50;;;;;;;;;;;;;;;13.06;100.00;100399.94;12858992;23;20046;-74
2022/09/12 22:19:54;;;;;;;;;;;;;;;13.07;100.00;100417.28;12858995;23;19994;-74
2022/09/12 22:24:57;;;;;;;;;;;;;;;13.09;100.00;100406.81;12858916;23;20013;-73
2022/09/12 22:30:00;;;;;;;;;;;;;;;13.10;100.00;100401.56;12860216;23;20023;-72
2022/09/12 22:35:07;;;;;;;;;;;;;;;13.11;100.00;100405.03;12861431;23;20322;-71
2022/09/12 22:40:10;;;;;;;;;;;;;;;13.11;100.00;100405.91;12860590;23;19950;-72
2022/09/12 22:45:14;;;;;;;;;;;;;;;13.08;100.00;100394.69;12859606;23;19924;-74
2022/09/12 22:50:18;;;;;;;;;;;;;;;13.04;100.00;100398.22;12858870;23;20008;-72
2022/09/12 22:55:22;;;;;;;;;;;;;;;12.96;100.00;100397.50;12875270;23;20025;-70
2022/09/12 23:00:26;;;;;;;;;;;;;;;12.92;100.00;100391.50;12858625;23;19955;-70
2022/09/12 23:05:31;;;;;;;;;;;;;;;12.85;100.00;100389.00;12858814;23;20283;-73
2022/09/12 23:10:34;;;;;;;;;;;;;;;12.80;100.00;100400.38;12858330;23;19956;-71
2022/09/12 23:15:37;;;;;;;;;;;;;;;12.74;100.00;100390.06;12858925;23;19999;-73
2022/09/12 23:20:42;;;;;;;;;;;;;;;12.71;100.00;100391.88;12858729;23;19919;-72
2022/09/12 23:25:45;;;;;;;;;;;;;;;12.63;100.00;100380.75;12858173;23;19932;-71
2022/09/12 23:30:53;;;;;;;;;;;;;;;12.53;100.00;100384.38;12858330;23;20007;-70
2022/09/12 23:36:01;;;;;;;;;;;;;;;12.52;100.00;100367.94;12875648;23;19955;-71
2022/09/12 23:41:04;;;;;;;;;;;;;;;12.51;100.00;100375.78;12877759;23;19959;-71
2022/09/12 23:46:07;;;;;;;;;;;;;;;12.48;100.00;100365.38;12861808;23;19931;-71
2022/09/12 23:51:12;;;;;;;;;;;;;;;12.43;100.00;100362.00;12861577;23;19955;-67
2022/09/12 23:56:15;;;;;;;;;;;;;;;12.18;100.00;100358.94;12862381;23;19931;-68
